createdAt,value
2019-02-20T00:01:57.091Z,4.30
2019-02-20T00:06:48.163Z,4.40
2019-02-20T00:11:33.391Z,4.50
2019-02-20T00:16:20.348Z,4.60
2019-02-20T00:21:05.454Z,4.50
2019-02-20T00:25:50.888Z,4.30
2019-02-20T00:30:36.483Z,4.20
2019-02-20T00:35:21.852Z,4.30
2019-02-20T00:40:06.907Z,4.30
2019-02-20T00:45:00.614Z,4.10
2019-02-20T00:49:49.392Z,4.10
2019-02-20T00:54:34.336Z,4.00
2019-02-20T00:59:22.072Z,3.90
2019-02-20T01:04:07.695Z,3.80
2019-02-20T01:08:52.317Z,3.80
2019-02-20T01:13:39.746Z,3.70
2019-02-20T01:18:24.744Z,3.50
2019-02-20T01:23:09.526Z,3.50
2019-02-20T01:27:54.408Z,3.40
2019-02-20T01:32:39.661Z,3.50
2019-02-20T01:37:24.836Z,3.40
2019-02-20T01:42:14.985Z,3.30
2019-02-20T01:47:01.548Z,3.20
2019-02-20T01:51:46.816Z,3.10
2019-02-20T01:56:31.814Z,3.10
2019-02-20T02:01:17.155Z,3.10
2019-02-20T02:06:02.370Z,3.20
2019-02-20T02:10:47.392Z,3.10
2019-02-20T02:15:33.578Z,3.10
2019-02-20T02:20:18.324Z,3.10
2019-02-20T02:25:03.398Z,3.10
2019-02-20T02:29:49.218Z,3.30
2019-02-20T02:34:34.054Z,3.20
2019-02-20T02:39:19.000Z,3.10
2019-02-20T02:44:03.952Z,3.10
2019-02-20T02:48:48.919Z,3.00
2019-02-20T02:53:33.731Z,2.90
2019-02-20T02:58:18.614Z,2.90
2019-02-20T03:03:03.606Z,2.90
2019-02-20T03:07:48.371Z,3.00
2019-02-20T03:12:33.406Z,3.00
2019-02-20T03:17:18.180Z,3.00
2019-02-20T03:22:03.340Z,2.90
2019-02-20T03:26:48.179Z,2.90
2019-02-20T03:31:33.653Z,2.80
2019-02-20T03:36:18.721Z,2.80
2019-02-20T03:41:05.561Z,2.70
2019-02-20T03:45:50.694Z,2.70
2019-02-20T03:50:35.624Z,2.60
2019-02-20T03:55:20.274Z,2.50
2019-02-20T04:00:05.547Z,2.50
2019-02-20T04:04:50.724Z,2.60
2019-02-20T04:09:35.644Z,2.60
2019-02-20T04:14:20.557Z,2.60
2019-02-20T04:19:07.000Z,2.60
2019-02-20T04:24:01.936Z,2.60
2019-02-20T04:28:41.010Z,2.60
2019-02-20T04:33:26.206Z,2.50
2019-02-20T04:38:13.304Z,2.40
2019-02-20T04:43:01.098Z,2.50
2019-02-20T04:47:48.482Z,2.40
2019-02-20T04:52:33.437Z,2.50
2019-02-20T04:57:18.259Z,2.60
2019-02-20T05:02:03.719Z,2.70
2019-02-20T05:06:48.275Z,2.70
2019-02-20T05:11:32.885Z,2.70
2019-02-20T05:16:20.504Z,2.70
2019-02-20T05:21:05.031Z,2.50
2019-02-20T05:25:49.920Z,2.80
2019-02-20T05:30:34.774Z,2.90
2019-02-20T05:35:24.915Z,3.10
2019-02-20T05:40:10.770Z,3.30
2019-02-20T05:44:55.583Z,3.30
2019-02-20T05:49:40.068Z,3.50
2019-02-20T05:54:33.815Z,3.50
2019-02-20T05:59:10.800Z,3.50
2019-02-20T06:03:55.521Z,3.60
2019-02-20T06:08:40.174Z,3.50
2019-02-20T06:13:24.831Z,3.70
2019-02-20T06:18:09.479Z,3.70
2019-02-20T06:22:53.985Z,3.70
2019-02-20T06:27:38.468Z,3.80
2019-02-20T06:32:24.176Z,3.80
2019-02-20T06:37:08.721Z,3.90
2019-02-20T06:41:53.236Z,3.90
2019-02-20T06:46:37.720Z,4.00
2019-02-20T06:51:22.403Z,4.00
2019-02-20T06:56:07.037Z,4.20
2019-02-20T07:00:51.597Z,4.20
2019-02-20T07:05:38.319Z,4.30
2019-02-20T07:10:58.663Z,4.40
2019-02-20T07:16:30.308Z,4.50
2019-02-20T07:21:59.121Z,4.60
2019-02-20T07:27:23.750Z,4.70
2019-02-20T07:32:08.343Z,4.80
2019-02-20T07:36:53.019Z,4.70
2019-02-20T07:41:37.512Z,4.80
2019-02-20T07:46:22.058Z,4.80
2019-02-20T07:51:06.595Z,4.80
2019-02-20T07:55:51.623Z,5.00
2019-02-20T08:00:36.324Z,5.20
2019-02-20T08:05:20.902Z,5.20
2019-02-20T08:10:06.739Z,5.20
2019-02-20T08:14:51.301Z,5.30
2019-02-20T08:19:35.826Z,5.20
2019-02-20T08:24:20.489Z,5.40
2019-02-20T08:29:05.061Z,5.30
2019-02-20T08:33:49.572Z,5.50
2019-02-20T08:38:34.419Z,5.50
2019-02-20T08:43:19.044Z,5.60
2019-02-20T08:48:03.625Z,5.60
2019-02-20T08:52:48.141Z,5.70
2019-02-20T08:57:33.060Z,5.80
2019-02-20T09:02:17.577Z,6.10
2019-02-20T09:07:02.108Z,6.10
2019-02-20T09:11:46.669Z,6.10
2019-02-20T09:16:34.504Z,6.10
2019-02-20T09:21:19.821Z,6.20
2019-02-20T09:26:04.613Z,6.20
2019-02-20T09:30:49.172Z,6.20
2019-02-20T09:35:33.674Z,6.50
2019-02-20T09:40:18.357Z,6.60
2019-02-20T09:45:03.184Z,6.80
2019-02-20T09:49:47.715Z,7.10
2019-02-20T09:54:32.515Z,7.30
2019-02-20T09:59:17.123Z,7.50
2019-02-20T10:04:01.925Z,7.80
2019-02-20T10:08:46.422Z,7.90
2019-02-20T10:13:30.997Z,7.70
2019-02-20T10:18:15.573Z,7.90
2019-02-20T10:23:00.384Z,7.80
2019-02-20T10:27:45.008Z,7.60
2019-02-20T10:32:29.523Z,7.60
2019-02-20T10:37:14.021Z,7.40
2019-02-20T10:41:58.611Z,7.80
2019-02-20T10:46:43.190Z,8.10
2019-02-20T10:51:27.799Z,8.10
2019-02-20T10:56:12.427Z,8.20
2019-02-20T11:00:56.969Z,8.30
2019-02-20T11:05:41.546Z,8.30
2019-02-20T11:10:26.025Z,8.60
2019-02-20T11:15:10.692Z,8.90
2019-02-20T11:19:55.329Z,9.00
2019-02-20T11:24:39.912Z,9.00
2019-02-20T11:29:24.432Z,9.10
2019-02-20T11:34:09.285Z,9.20
2019-02-20T11:38:53.973Z,9.10
2019-02-20T11:43:38.562Z,9.00
2019-02-20T11:48:23.109Z,9.20
2019-02-20T11:53:07.622Z,9.30
2019-02-20T11:58:00.341Z,9.00
2019-02-20T12:02:38.415Z,9.10
2019-02-20T12:07:23.397Z,9.10
2019-02-20T12:12:09.420Z,9.00
2019-02-20T12:16:54.109Z,9.20
2019-02-20T12:21:38.933Z,9.50
2019-02-20T12:26:24.121Z,9.40
2019-02-20T12:31:08.571Z,9.80
2019-02-20T12:35:53.320Z,9.60
2019-02-20T12:40:37.913Z,9.80
2019-02-20T12:45:22.574Z,9.60
2019-02-20T12:50:07.431Z,9.70
2019-02-20T12:54:52.111Z,9.70
2019-02-20T12:59:36.860Z,9.70
2019-02-20T13:04:21.577Z,9.60
2019-02-20T13:09:08.698Z,10.00
2019-02-20T13:13:53.256Z,9.80
2019-02-20T13:18:37.906Z,9.50
2019-02-20T13:23:22.380Z,9.40
2019-02-20T13:28:06.925Z,9.60
2019-02-20T13:32:51.671Z,9.80
2019-02-20T13:37:36.349Z,10.10
2019-02-20T13:42:20.986Z,10.50
2019-02-20T13:47:05.684Z,10.40
2019-02-20T13:51:50.265Z,10.10
2019-02-20T13:56:34.949Z,9.60
2019-02-20T14:01:19.495Z,9.30
2019-02-20T14:06:04.138Z,9.30
2019-02-20T14:10:48.663Z,9.30
2019-02-20T14:15:33.215Z,9.20
2019-02-20T14:20:18.135Z,9.20
2019-02-20T14:25:02.823Z,9.20
2019-02-20T14:29:47.451Z,9.30
2019-02-20T14:34:32.002Z,9.40
2019-02-20T14:39:16.547Z,9.60
2019-02-20T14:44:01.146Z,9.70
2019-02-20T14:48:47.336Z,9.60
2019-02-20T14:53:32.042Z,9.40
2019-02-20T14:58:16.873Z,9.20
2019-02-20T15:03:01.625Z,9.20
2019-02-20T15:07:46.139Z,9.20
2019-02-20T15:12:30.877Z,8.90
2019-02-20T15:17:15.483Z,9.00
2019-02-20T15:22:00.073Z,8.90
2019-02-20T15:26:44.716Z,9.00
2019-02-20T15:31:33.654Z,9.00
2019-02-20T15:36:15.530Z,8.70
2019-02-20T15:41:00.422Z,8.60
2019-02-20T15:45:44.989Z,8.40
2019-02-20T15:50:29.578Z,8.20
2019-02-20T15:55:14.513Z,7.90
2019-02-20T15:59:59.162Z,7.80
2019-02-20T16:04:43.745Z,7.60
2019-02-20T16:09:28.309Z,7.30
2019-02-20T16:14:12.849Z,7.20
2019-02-20T16:18:57.501Z,7.00
2019-02-20T16:23:42.147Z,6.80
2019-02-20T16:28:33.549Z,6.70
2019-02-20T16:33:12.942Z,6.40
2019-02-20T16:37:58.420Z,6.30
2019-02-20T16:42:43.018Z,6.20
2019-02-20T16:47:27.594Z,6.10
2019-02-20T16:52:12.346Z,6.00
2019-02-20T16:56:56.967Z,5.80
2019-02-20T17:01:41.645Z,5.50
2019-02-20T17:06:26.253Z,5.50
2019-02-20T17:11:11.095Z,5.40
2019-02-20T17:15:55.849Z,5.30
2019-02-20T17:20:40.686Z,5.20
2019-02-20T17:25:25.374Z,5.20
2019-02-20T17:30:11.464Z,5.20
2019-02-20T17:34:56.258Z,5.30
2019-02-20T17:39:41.185Z,5.10
2019-02-20T17:44:25.780Z,5.20
2019-02-20T17:49:10.324Z,5.20
2019-02-20T17:53:54.941Z,5.10
2019-02-20T17:58:39.496Z,5.10
2019-02-20T18:03:24.090Z,5.10
2019-02-20T18:08:08.855Z,5.10
2019-02-20T18:12:53.539Z,5.00
2019-02-20T18:17:38.599Z,5.00
2019-02-20T18:22:23.169Z,5.00
2019-02-20T18:27:07.737Z,5.00
2019-02-20T18:31:52.730Z,5.00
2019-02-20T18:36:37.294Z,5.10
2019-02-20T18:41:22.044Z,5.20
2019-02-20T18:46:09.440Z,5.20
2019-02-20T18:50:54.105Z,5.20
2019-02-20T18:55:38.865Z,5.10
2019-02-20T19:00:23.709Z,5.10
2019-02-20T19:05:08.875Z,5.10
2019-02-20T19:09:53.691Z,5.00
2019-02-20T19:15:10.784Z,4.90
2019-02-20T19:20:12.105Z,4.90
2019-02-20T19:25:37.705Z,5.00
2019-02-20T19:31:05.071Z,5.00
2019-02-20T19:36:30.741Z,5.10
2019-02-20T19:42:11.295Z,5.30
2019-02-20T19:47:14.251Z,5.30
2019-02-20T19:52:29.345Z,5.40
2019-02-20T19:57:58.127Z,5.40
2019-02-20T20:03:28.125Z,5.30
2019-02-20T20:08:37.338Z,5.40
2019-02-20T20:14:04.383Z,5.30
2019-02-20T20:19:36.032Z,5.30
2019-02-20T20:24:53.431Z,5.30
2019-02-20T20:30:18.033Z,5.20
2019-02-20T20:35:27.276Z,5.10
2019-02-20T20:40:54.818Z,5.20
2019-02-20T20:45:55.687Z,5.30
2019-02-20T20:51:29.138Z,5.20
2019-02-20T20:57:00.431Z,5.10
2019-02-20T21:02:41.208Z,5.20
2019-02-20T21:07:38.215Z,5.20
2019-02-20T21:12:55.267Z,5.10
2019-02-20T21:18:16.754Z,5.10
2019-02-20T21:23:50.685Z,4.90
2019-02-20T21:29:13.385Z,5.00
2019-02-20T21:34:35.113Z,5.00
2019-02-20T21:39:53.004Z,5.00
2019-02-20T21:45:13.729Z,4.90
2019-02-20T21:50:50.306Z,4.90
2019-02-20T21:56:08.929Z,4.90
2019-02-20T22:01:26.457Z,5.00
2019-02-20T22:06:55.208Z,4.90
2019-02-20T22:12:14.251Z,5.00
2019-02-20T22:17:38.743Z,5.10
2019-02-20T22:23:07.628Z,5.20
2019-02-20T22:28:31.281Z,5.30
2019-02-20T22:33:28.221Z,5.50
2019-02-20T22:38:50.955Z,5.50
2019-02-20T22:44:24.570Z,5.50
2019-02-20T22:49:36.817Z,5.70
2019-02-20T22:54:48.553Z,5.60
2019-02-20T23:00:34.094Z,5.50
2019-02-20T23:05:56.610Z,5.60
2019-02-20T23:11:26.981Z,5.40
2019-02-20T23:16:11.690Z,5.30
2019-02-20T23:20:56.325Z,5.20
2019-02-20T23:25:40.898Z,5.10
2019-02-20T23:30:25.542Z,5.00
2019-02-20T23:35:10.196Z,5.00
2019-02-20T23:39:54.851Z,5.00
2019-02-20T23:44:39.524Z,4.90
2019-02-20T23:49:24.253Z,4.80
2019-02-20T23:54:08.777Z,4.80
2019-02-20T23:58:53.376Z,4.80
